Kezdőlap
METAR-TAF:

METAR-TAF

Repülőterek :

Washington Municipal Airport

Washington, Iowa, Amerikai Egyesült Államok

földrajzi szélesség: 41-17N, földrajzi hosszúság: 091-40W, magasság: 230 m

Jelenlegi meteorológiai megfigyelések

A jelentés 29 perccel ezelõtt készült, 14:55 UTC
Déli szél 7 kt
Hőmérséklet 11°C
Páratartalom 100%
Légköri nyomás 1016 hPa
Látótávolság: 16.1 km
Szakadozott felhőzet 1800 lábon
Szakadozott felhőzet 2200 lábon
Szakadozott felhőzet 5000 lábon

METAR: KAWG 061455Z AUTO 17007KT 10SM BKN018 BKN022 BKN050 11/11 A2999 RMK AO2

Idő: 10:24 (15:24 UTC)


TAF: hiányzik

Meteorológiai megfigyelések és előrejelzések több, mint 4000 repülőtéren (METAR és TAF jelentéseket).

A térképen piros és sárga pontok jelzik az elérhető meteorológiai állomásokat.

Mozgassa az egeret a pont fölött, hogy megjelenjen az állomás neve.

Azután kattintson az időjárási megfigyelések és előrejelzések megtekintéséhez.

A térkép megváltoztatása: kattintson a fekete keresztel jelölt zöld gombra ráközelítéshez, a vonallal jelölt zöld gombra távolításhoz, vagy a zöld nyilakra a szomszédos térképek eléréséhez.


METAR-TAF: